IBE722 EGLL-LEMD
Flight info
| Callsign | IBE722 |
|---|---|
| Flight time | 1h 54m |
| Altitude | 32000 |
| Route | GOGSI N621 SAM M195 MARUK N621 LELNA DCT ERCOZ DCT NOVAN DCT DELOG N864 VADOX DCT SNR N864 NONTU |
| Aircraft | A359/H-SDE2E3GHIJ3J4J5LM1ORWXY/LB1D1 |
Departure
| Time | 2026-05-04 10:35 |
|---|---|
| Airport | London Heathrow Airport (EGLL) |
Arrival
| Time | 2026-05-04 12:29 |
|---|---|
| Airport | Adolfo Suárez Madrid–Barajas Airport (LEMD) |
| Time | Latitude | Longitude | Altitude | Speed | Heading |
|---|---|---|---|---|---|
| 2026-05-04 09:34 | 51.47317 | -0.47495 | 95 ft | 0 kts | 269° |
| 2026-05-04 10:25 | 51.47317 | -0.47441 | 92 ft | 0 kts | 269° |
| 2026-05-04 10:26 | 51.47317 | -0.47442 | 92 ft | 1 kts | 267° |
| 2026-05-04 10:27 | 51.47311 | -0.47450 | 92 ft | 2 kts | 223° |
| 2026-05-04 10:27 | 51.47269 | -0.47410 | 97 ft | 17 kts | 143° |
| 2026-05-04 10:27 | 51.47151 | -0.47348 | 95 ft | 3 kts | 181° |
| 2026-05-04 10:28 | 51.47150 | -0.47348 | 95 ft | 1 kts | 181° |
| 2026-05-04 10:28 | 51.47049 | -0.47351 | 94 ft | 22 kts | 180° |
| 2026-05-04 10:28 | 51.46919 | -0.47351 | 94 ft | 16 kts | 180° |
| 2026-05-04 10:28 | 51.46768 | -0.47349 | 95 ft | 25 kts | 180° |
| 2026-05-04 10:29 | 51.46669 | -0.47296 | 94 ft | 14 kts | 118° |
| 2026-05-04 10:29 | 51.46656 | -0.47052 | 95 ft | 28 kts | 90° |
| 2026-05-04 10:29 | 51.46657 | -0.46750 | 96 ft | 25 kts | 89° |
| 2026-05-04 10:29 | 51.46659 | -0.46466 | 96 ft | 27 kts | 89° |
| 2026-05-04 10:30 | 51.46660 | -0.46171 | 96 ft | 28 kts | 90° |
| 2026-05-04 10:30 | 51.46660 | -0.45857 | 92 ft | 28 kts | 89° |
| 2026-05-04 10:30 | 51.46662 | -0.45536 | 94 ft | 29 kts | 89° |
| 2026-05-04 10:30 | 51.46662 | -0.45264 | 95 ft | 14 kts | 90° |
| 2026-05-04 10:31 | 51.46663 | -0.45100 | 93 ft | 16 kts | 90° |
| 2026-05-04 10:31 | 51.46663 | -0.44915 | 93 ft | 18 kts | 90° |
| 2026-05-04 10:32 | 51.46642 | -0.43624 | 95 ft | 13 kts | 144° |
| 2026-05-04 10:33 | 51.46549 | -0.43602 | 93 ft | 14 kts | 180° |
| 2026-05-04 10:33 | 51.46500 | -0.43633 | 96 ft | 4 kts | 249° |
| 2026-05-04 10:33 | 51.46496 | -0.43670 | 96 ft | 0 kts | 266° |
| 2026-05-04 10:34 | 51.46493 | -0.43810 | 92 ft | 44 kts | 266° |
| 2026-05-04 10:34 | 51.46504 | -0.44363 | 97 ft | 92 kts | 261° |
| 2026-05-04 10:35 | 51.46416 | -0.50284 | 1429 ft | 180 kts | 273° |
| 2026-05-04 10:35 | 51.46396 | -0.52413 | 1819 ft | 206 kts | 269° |
| 2026-05-04 10:35 | 51.46340 | -0.54858 | 2269 ft | 233 kts | 268° |
| 2026-05-04 10:36 | 51.46278 | -0.57578 | 2841 ft | 253 kts | 268° |
| 2026-05-04 10:36 | 51.46222 | -0.60430 | 3669 ft | 259 kts | 268° |
| 2026-05-04 10:36 | 51.46109 | -0.63318 | 4586 ft | 260 kts | 263° |
| 2026-05-04 10:36 | 51.45903 | -0.66212 | 5393 ft | 265 kts | 262° |
| 2026-05-04 10:37 | 51.45651 | -0.69150 | 5859 ft | 267 kts | 262° |
| 2026-05-04 10:37 | 51.45477 | -0.72128 | 6009 ft | 269 kts | 266° |
| 2026-05-04 10:37 | 51.45419 | -0.75125 | 6014 ft | 270 kts | 268° |
| 2026-05-04 10:37 | 51.45364 | -0.78137 | 6010 ft | 270 kts | 265° |
| 2026-05-04 10:39 | 51.37777 | -0.90607 | 9773 ft | 272 kts | 213° |
| 2026-05-04 10:39 | 51.36171 | -0.92284 | 10507 ft | 283 kts | 213° |
| 2026-05-04 10:39 | 51.34477 | -0.94121 | 10918 ft | 305 kts | 214° |
| 2026-05-04 10:40 | 51.32673 | -0.96112 | 11341 ft | 325 kts | 214° |
| 2026-05-04 10:40 | 51.30760 | -0.98218 | 11805 ft | 341 kts | 214° |
| 2026-05-04 10:40 | 51.28778 | -1.00393 | 12519 ft | 349 kts | 214° |
| 2026-05-04 10:40 | 51.26744 | -1.02588 | 13310 ft | 355 kts | 213° |
| 2026-05-04 10:41 | 51.24659 | -1.04754 | 14065 ft | 360 kts | 212° |
| 2026-05-04 10:41 | 51.22537 | -1.06917 | 14799 ft | 364 kts | 212° |
| 2026-05-04 10:41 | 51.20386 | -1.09101 | 15528 ft | 368 kts | 212° |
| 2026-05-04 10:41 | 51.18223 | -1.11300 | 16263 ft | 372 kts | 212° |
| 2026-05-04 10:42 | 51.16031 | -1.13536 | 17010 ft | 376 kts | 212° |
| 2026-05-04 10:42 | 51.13821 | -1.15799 | 17749 ft | 380 kts | 212° |
| 2026-05-04 10:42 | 51.11593 | -1.18083 | 18487 ft | 383 kts | 212° |
| 2026-05-04 10:42 | 51.09368 | -1.20364 | 19164 ft | 387 kts | 212° |
| 2026-05-04 10:43 | 51.07107 | -1.22683 | 19854 ft | 391 kts | 212° |
| 2026-05-04 10:49 | 50.99396 | -1.30562 | 22142 ft | 403 kts | 212° |
| 2026-05-04 10:49 | 50.97029 | -1.32973 | 22839 ft | 407 kts | 212° |
| 2026-05-04 10:50 | 50.94633 | -1.35411 | 23504 ft | 411 kts | 212° |
| 2026-05-04 10:51 | 50.77685 | -1.53055 | 27878 ft | 423 kts | 212° |
| 2026-05-04 10:52 | 50.75221 | -1.55604 | 28510 ft | 425 kts | 212° |
| 2026-05-04 10:52 | 50.72738 | -1.58168 | 29096 ft | 427 kts | 212° |
| 2026-05-04 10:52 | 50.70249 | -1.60736 | 29661 ft | 429 kts | 212° |
| 2026-05-04 10:54 | 50.52133 | -1.79328 | 31978 ft | 456 kts | 212° |
| 2026-05-04 10:54 | 50.49468 | -1.82056 | 32329 ft | 458 kts | 212° |
| 2026-05-04 10:56 | 50.30546 | -2.01260 | 33012 ft | 461 kts | 212° |
| 2026-05-04 10:56 | 50.27808 | -2.03858 | 33011 ft | 460 kts | 207° |
| 2026-05-04 10:57 | 50.21833 | -2.07329 | 33009 ft | 459 kts | 192° |
| 2026-05-04 10:57 | 50.15504 | -2.08580 | 33012 ft | 459 kts | 185° |
| 2026-05-04 10:58 | 50.09143 | -2.09352 | 33008 ft | 458 kts | 185° |
| 2026-05-04 10:58 | 50.02795 | -2.10134 | 33013 ft | 458 kts | 187° |
| 2026-05-04 10:59 | 49.96641 | -2.12590 | 33013 ft | 458 kts | 202° |
| 2026-05-04 10:59 | 49.91027 | -2.17263 | 33017 ft | 458 kts | 209° |
| 2026-05-04 11:00 | 49.85594 | -2.22406 | 33019 ft | 458 kts | 210° |
| 2026-05-04 11:02 | 49.63718 | -2.42941 | 33017 ft | 460 kts | 210° |
| 2026-05-04 11:05 | 49.22474 | -2.80808 | 33004 ft | 463 kts | 209° |
| 2026-05-04 11:06 | 49.16935 | -2.85839 | 32999 ft | 463 kts | 209° |
| 2026-05-04 11:06 | 49.11394 | -2.90857 | 33024 ft | 463 kts | 209° |
| 2026-05-04 11:10 | 48.72433 | -3.25774 | 33015 ft | 466 kts | 209° |
| 2026-05-04 11:12 | 48.50081 | -3.45521 | 32985 ft | 464 kts | 209° |
| 2026-05-04 11:12 | 48.44489 | -3.50429 | 32982 ft | 466 kts | 209° |
| 2026-05-04 11:13 | 48.38884 | -3.55337 | 32979 ft | 466 kts | 209° |
| 2026-05-04 11:13 | 48.32977 | -3.59270 | 32982 ft | 465 kts | 195° |
| 2026-05-04 11:14 | 48.26598 | -3.60670 | 32979 ft | 464 kts | 183° |
| 2026-05-04 11:16 | 48.00817 | -3.61852 | 32974 ft | 464 kts | 182° |
| 2026-05-04 11:16 | 47.94364 | -3.62172 | 32976 ft | 464 kts | 182° |
| 2026-05-04 11:17 | 47.87908 | -3.62493 | 32979 ft | 464 kts | 182° |
| 2026-05-04 11:19 | 47.62081 | -3.63755 | 32991 ft | 464 kts | 182° |
| 2026-05-04 11:19 | 47.56715 | -3.64016 | 32987 ft | 464 kts | 182° |
| 2026-05-04 11:20 | 47.50260 | -3.64329 | 32989 ft | 464 kts | 182° |
| 2026-05-04 11:20 | 47.43812 | -3.64641 | 32993 ft | 463 kts | 182° |
| 2026-05-04 11:22 | 47.18035 | -3.65879 | 32999 ft | 463 kts | 182° |
| 2026-05-04 11:23 | 47.11593 | -3.66187 | 32999 ft | 463 kts | 182° |
| 2026-05-04 11:25 | 46.89047 | -3.67257 | 32997 ft | 464 kts | 182° |
| 2026-05-04 11:25 | 46.82568 | -3.67563 | 32999 ft | 467 kts | 182° |
| 2026-05-04 11:27 | 46.53344 | -3.68935 | 32999 ft | 467 kts | 182° |
| 2026-05-04 11:28 | 46.46850 | -3.69238 | 33001 ft | 467 kts | 182° |
| 2026-05-04 11:28 | 46.40352 | -3.69540 | 33001 ft | 467 kts | 182° |
| 2026-05-04 11:29 | 46.33864 | -3.69841 | 33004 ft | 467 kts | 182° |
| 2026-05-04 11:29 | 46.27381 | -3.70361 | 33005 ft | 466 kts | 186° |
| 2026-05-04 11:33 | 45.82331 | -3.77326 | 33004 ft | 464 kts | 187° |
| 2026-05-04 11:33 | 45.75905 | -3.78271 | 33008 ft | 464 kts | 187° |
| 2026-05-04 11:34 | 45.69479 | -3.79214 | 33005 ft | 464 kts | 187° |
| 2026-05-04 11:34 | 45.63060 | -3.80154 | 33004 ft | 463 kts | 187° |
| 2026-05-04 11:35 | 45.56659 | -3.81088 | 33008 ft | 462 kts | 187° |
| 2026-05-04 11:35 | 45.50256 | -3.82021 | 33011 ft | 462 kts | 187° |
| 2026-05-04 11:36 | 45.43857 | -3.82951 | 33012 ft | 462 kts | 187° |
| 2026-05-04 11:36 | 45.37466 | -3.83878 | 33011 ft | 462 kts | 187° |
| 2026-05-04 11:37 | 45.31072 | -3.84803 | 33000 ft | 462 kts | 187° |
| 2026-05-04 11:37 | 45.24682 | -3.85726 | 33014 ft | 461 kts | 187° |
| 2026-05-04 11:38 | 45.18284 | -3.86647 | 33009 ft | 463 kts | 187° |
| 2026-05-04 11:38 | 45.11859 | -3.87571 | 33001 ft | 465 kts | 187° |
| 2026-05-04 11:39 | 45.05426 | -3.88492 | 33010 ft | 465 kts | 187° |
| 2026-05-04 11:41 | 44.82911 | -3.91703 | 33011 ft | 465 kts | 187° |
| 2026-05-04 11:41 | 44.76468 | -3.92618 | 33012 ft | 465 kts | 187° |
| 2026-05-04 11:42 | 44.70072 | -3.93524 | 33012 ft | 465 kts | 187° |
| 2026-05-04 11:42 | 44.63635 | -3.94433 | 33012 ft | 465 kts | 187° |
| 2026-05-04 11:43 | 44.57198 | -3.95341 | 33015 ft | 465 kts | 187° |
| 2026-05-04 11:43 | 44.50751 | -3.96247 | 33014 ft | 466 kts | 187° |
| 2026-05-04 11:44 | 44.44302 | -3.97153 | 33018 ft | 466 kts | 187° |
| 2026-05-04 11:44 | 44.37847 | -3.98057 | 33020 ft | 466 kts | 187° |
| 2026-05-04 11:45 | 44.31369 | -3.98514 | 33022 ft | 468 kts | 180° |
| 2026-05-04 11:45 | 44.24857 | -3.98026 | 33019 ft | 469 kts | 178° |
| 2026-05-04 11:46 | 44.18346 | -3.97370 | 33018 ft | 469 kts | 178° |
| 2026-05-04 11:46 | 44.11826 | -3.96700 | 33018 ft | 470 kts | 178° |
| 2026-05-04 11:47 | 44.05300 | -3.96052 | 33029 ft | 470 kts | 178° |
| 2026-05-04 11:47 | 43.98774 | -3.95416 | 33019 ft | 470 kts | 178° |
| 2026-05-04 11:48 | 43.92240 | -3.94783 | 33028 ft | 471 kts | 178° |
| 2026-05-04 11:48 | 43.85707 | -3.94152 | 33018 ft | 471 kts | 178° |
| 2026-05-04 11:49 | 43.79162 | -3.93520 | 33037 ft | 471 kts | 178° |
| 2026-05-04 11:49 | 43.72617 | -3.92894 | 33028 ft | 472 kts | 178° |
| 2026-05-04 11:50 | 43.66072 | -3.92264 | 33030 ft | 472 kts | 178° |
| 2026-05-04 11:50 | 43.59561 | -3.91637 | 33042 ft | 472 kts | 178° |
| 2026-05-04 11:51 | 43.53011 | -3.91009 | 33041 ft | 472 kts | 178° |
| 2026-05-04 11:51 | 43.46447 | -3.90432 | 33044 ft | 472 kts | 181° |
| 2026-05-04 11:52 | 43.39913 | -3.90966 | 33046 ft | 470 kts | 187° |
| 2026-05-04 11:52 | 43.33414 | -3.91899 | 33045 ft | 470 kts | 188° |
| 2026-05-04 11:53 | 43.26912 | -3.92897 | 33046 ft | 470 kts | 188° |
| 2026-05-04 11:53 | 43.20400 | -3.93881 | 33043 ft | 470 kts | 188° |
| 2026-05-04 11:55 | 42.94363 | -3.97709 | 33018 ft | 471 kts | 189° |
| 2026-05-04 11:56 | 42.87857 | -3.98660 | 33030 ft | 470 kts | 189° |
| 2026-05-04 11:56 | 42.81346 | -3.99609 | 33027 ft | 470 kts | 189° |
| 2026-05-04 11:57 | 42.74838 | -4.00556 | 33026 ft | 470 kts | 189° |
| 2026-05-04 11:57 | 42.68332 | -4.01501 | 33019 ft | 470 kts | 189° |
| 2026-05-04 11:58 | 42.61824 | -4.02444 | 33019 ft | 470 kts | 189° |
| 2026-05-04 11:58 | 42.55318 | -4.03387 | 33015 ft | 470 kts | 189° |
| 2026-05-04 11:59 | 42.48808 | -4.04328 | 33017 ft | 471 kts | 189° |
| 2026-05-04 11:59 | 42.42300 | -4.05263 | 33013 ft | 471 kts | 189° |
| 2026-05-04 12:00 | 42.35785 | -4.06197 | 33010 ft | 470 kts | 189° |
| 2026-05-04 12:00 | 42.29318 | -4.07124 | 33021 ft | 471 kts | 189° |
| 2026-05-04 12:01 | 42.22805 | -4.08057 | 33016 ft | 471 kts | 189° |
| 2026-05-04 12:02 | 42.00340 | -4.11239 | 26385 ft | 460 kts | 187° |
| 2026-05-04 12:03 | 41.97174 | -4.11594 | 25124 ft | 452 kts | 187° |
| 2026-05-04 12:03 | 41.94072 | -4.11931 | 23914 ft | 443 kts | 187° |
| 2026-05-04 12:03 | 41.91021 | -4.12266 | 22553 ft | 435 kts | 187° |
| 2026-05-04 12:03 | 41.88030 | -4.12600 | 21172 ft | 428 kts | 187° |
| 2026-05-04 12:04 | 41.85092 | -4.12930 | 19870 ft | 420 kts | 187° |
| 2026-05-04 12:04 | 41.82205 | -4.13256 | 18634 ft | 412 kts | 187° |
| 2026-05-04 12:04 | 41.79373 | -4.13577 | 17310 ft | 405 kts | 187° |
| 2026-05-04 12:04 | 41.76590 | -4.13893 | 16005 ft | 397 kts | 187° |
| 2026-05-04 12:05 | 41.73849 | -4.14204 | 15260 ft | 398 kts | 187° |
| 2026-05-04 12:05 | 41.71100 | -4.14517 | 15031 ft | 394 kts | 187° |
| 2026-05-04 12:05 | 41.68380 | -4.14825 | 14999 ft | 392 kts | 187° |
| 2026-05-04 12:05 | 41.65658 | -4.15134 | 15005 ft | 393 kts | 187° |
| 2026-05-04 12:06 | 41.63857 | -4.15338 | 15006 ft | 393 kts | 187° |
| 2026-05-04 12:06 | 41.61134 | -4.15646 | 15006 ft | 393 kts | 187° |
| 2026-05-04 12:06 | 41.58409 | -4.15953 | 15005 ft | 393 kts | 187° |
| 2026-05-04 12:06 | 41.55688 | -4.16262 | 15006 ft | 393 kts | 187° |
| 2026-05-04 12:07 | 41.52965 | -4.16570 | 15005 ft | 393 kts | 187° |
| 2026-05-04 12:07 | 41.50245 | -4.16876 | 15003 ft | 391 kts | 187° |
| 2026-05-04 12:07 | 41.47583 | -4.17176 | 14900 ft | 375 kts | 187° |
| 2026-05-04 12:07 | 41.45043 | -4.17458 | 14777 ft | 358 kts | 187° |
| 2026-05-04 12:08 | 41.42611 | -4.17728 | 14650 ft | 343 kts | 187° |
| 2026-05-04 12:08 | 41.40282 | -4.17988 | 14524 ft | 329 kts | 187° |
| 2026-05-04 12:08 | 41.38040 | -4.18240 | 14396 ft | 317 kts | 187° |
| 2026-05-04 12:08 | 41.35888 | -4.18481 | 14237 ft | 306 kts | 187° |
| 2026-05-04 12:09 | 41.33791 | -4.18717 | 13907 ft | 298 kts | 187° |
| 2026-05-04 12:09 | 41.31741 | -4.18947 | 13185 ft | 295 kts | 187° |
| 2026-05-04 12:09 | 41.29685 | -4.19169 | 12121 ft | 300 kts | 186° |
| 2026-05-04 12:09 | 41.27570 | -4.19003 | 10988 ft | 311 kts | 170° |
| 2026-05-04 12:10 | 41.25550 | -4.17877 | 9855 ft | 322 kts | 148° |
| 2026-05-04 12:10 | 41.23875 | -4.15920 | 8655 ft | 327 kts | 136° |
| 2026-05-04 12:10 | 41.22289 | -4.13680 | 7476 ft | 329 kts | 135° |
| 2026-05-04 12:10 | 41.20722 | -4.11444 | 6436 ft | 335 kts | 135° |
| 2026-05-04 12:11 | 41.19159 | -4.09232 | 6003 ft | 327 kts | 135° |
| 2026-05-04 12:11 | 41.17637 | -4.07089 | 5857 ft | 310 kts | 135° |
| 2026-05-04 12:11 | 41.16193 | -4.05064 | 5785 ft | 293 kts | 135° |
| 2026-05-04 12:11 | 41.14832 | -4.03162 | 5986 ft | 274 kts | 135° |
| 2026-05-04 12:12 | 41.13568 | -4.01398 | 6016 ft | 255 kts | 135° |
| 2026-05-04 12:12 | 41.12387 | -3.99752 | 6020 ft | 239 kts | 136° |
| 2026-05-04 12:12 | 41.11271 | -3.98201 | 6021 ft | 226 kts | 136° |
| 2026-05-04 12:12 | 41.10210 | -3.96728 | 6008 ft | 216 kts | 136° |
| 2026-05-04 12:13 | 41.09178 | -3.95299 | 6090 ft | 214 kts | 136° |
| 2026-05-04 12:14 | 41.01970 | -3.85322 | 8007 ft | 199 kts | 137° |
| 2026-05-04 12:15 | 41.01011 | -3.83999 | 8026 ft | 199 kts | 136° |
| 2026-05-04 12:15 | 41.00057 | -3.82681 | 8040 ft | 199 kts | 136° |
| 2026-05-04 12:15 | 40.99098 | -3.81350 | 8004 ft | 202 kts | 138° |
| 2026-05-04 12:15 | 40.98248 | -3.79865 | 8006 ft | 204 kts | 120° |
| 2026-05-04 12:16 | 40.97805 | -3.78079 | 8008 ft | 208 kts | 99° |
| 2026-05-04 12:16 | 40.97667 | -3.76173 | 8013 ft | 207 kts | 95° |
| 2026-05-04 12:16 | 40.97586 | -3.74278 | 8025 ft | 206 kts | 94° |
| 2026-05-04 12:16 | 40.97504 | -3.72399 | 8024 ft | 205 kts | 94° |
| 2026-05-04 12:17 | 40.97416 | -3.70514 | 8007 ft | 205 kts | 95° |
| 2026-05-04 12:17 | 40.97325 | -3.68626 | 8007 ft | 206 kts | 95° |
| 2026-05-04 12:17 | 40.97168 | -3.66741 | 8005 ft | 205 kts | 104° |
| 2026-05-04 12:17 | 40.96786 | -3.64930 | 7912 ft | 203 kts | 110° |
| 2026-05-04 12:18 | 40.96342 | -3.63186 | 7813 ft | 200 kts | 111° |
| 2026-05-04 12:18 | 40.95885 | -3.61434 | 7817 ft | 199 kts | 111° |
| 2026-05-04 12:18 | 40.95365 | -3.59821 | 7802 ft | 185 kts | 125° |
| 2026-05-04 12:18 | 40.94541 | -3.58567 | 7797 ft | 177 kts | 147° |
| 2026-05-04 12:19 | 40.93469 | -3.57854 | 7801 ft | 170 kts | 171° |
| 2026-05-04 12:19 | 40.92318 | -3.57666 | 7800 ft | 165 kts | 185° |
| 2026-05-04 12:19 | 40.91181 | -3.57659 | 7797 ft | 160 kts | 184° |
| 2026-05-04 12:19 | 40.90099 | -3.57656 | 7793 ft | 152 kts | 185° |
| 2026-05-04 12:20 | 40.89050 | -3.57651 | 7791 ft | 150 kts | 186° |
| 2026-05-04 12:20 | 40.88015 | -3.57646 | 7603 ft | 151 kts | 186° |
| 2026-05-04 12:20 | 40.86971 | -3.57640 | 7515 ft | 150 kts | 187° |
| 2026-05-04 12:20 | 40.85935 | -3.57634 | 7508 ft | 148 kts | 187° |
| 2026-05-04 12:21 | 40.84905 | -3.57627 | 7491 ft | 148 kts | 187° |
| 2026-05-04 12:21 | 40.83870 | -3.57623 | 7493 ft | 149 kts | 185° |
| 2026-05-04 12:21 | 40.82825 | -3.57618 | 7491 ft | 151 kts | 184° |
| 2026-05-04 12:21 | 40.81778 | -3.57612 | 7489 ft | 150 kts | 185° |
| 2026-05-04 12:22 | 40.80728 | -3.57609 | 7491 ft | 151 kts | 184° |
| 2026-05-04 12:22 | 40.79672 | -3.57600 | 7409 ft | 151 kts | 186° |
| 2026-05-04 12:22 | 40.78622 | -3.57598 | 7228 ft | 151 kts | 185° |
| 2026-05-04 12:22 | 40.77573 | -3.57593 | 7008 ft | 150 kts | 187° |
| 2026-05-04 12:23 | 40.76531 | -3.57590 | 6770 ft | 150 kts | 187° |
| 2026-05-04 12:23 | 40.75487 | -3.57585 | 6560 ft | 150 kts | 185° |
| 2026-05-04 12:23 | 40.74445 | -3.57576 | 6349 ft | 149 kts | 186° |
| 2026-05-04 12:23 | 40.73402 | -3.57575 | 6139 ft | 150 kts | 184° |
| 2026-05-04 12:24 | 40.72357 | -3.57569 | 5944 ft | 150 kts | 184° |
| 2026-05-04 12:24 | 40.71318 | -3.57564 | 5737 ft | 149 kts | 184° |
| 2026-05-04 12:24 | 40.70278 | -3.57559 | 5539 ft | 150 kts | 184° |
| 2026-05-04 12:24 | 40.69237 | -3.57555 | 5334 ft | 149 kts | 184° |
| 2026-05-04 12:25 | 40.68207 | -3.57549 | 5135 ft | 147 kts | 184° |
| 2026-05-04 12:25 | 40.67180 | -3.57545 | 4951 ft | 148 kts | 184° |
| 2026-05-04 12:25 | 40.66150 | -3.57540 | 4760 ft | 148 kts | 184° |
| 2026-05-04 12:25 | 40.65127 | -3.57532 | 4551 ft | 146 kts | 187° |
| 2026-05-04 12:26 | 40.64120 | -3.57530 | 4352 ft | 144 kts | 186° |
| 2026-05-04 12:26 | 40.63123 | -3.57530 | 4168 ft | 143 kts | 183° |
| 2026-05-04 12:26 | 40.62124 | -3.57521 | 3968 ft | 143 kts | 183° |
| 2026-05-04 12:26 | 40.61142 | -3.57513 | 3775 ft | 140 kts | 186° |
| 2026-05-04 12:27 | 40.60175 | -3.57514 | 3574 ft | 139 kts | 184° |
| 2026-05-04 12:27 | 40.59210 | -3.57512 | 3399 ft | 140 kts | 182° |
| 2026-05-04 12:27 | 40.58242 | -3.57503 | 3198 ft | 138 kts | 183° |
| 2026-05-04 12:27 | 40.57282 | -3.57501 | 3021 ft | 139 kts | 182° |
| 2026-05-04 12:28 | 40.56316 | -3.57496 | 2830 ft | 138 kts | 181° |
| 2026-05-04 12:28 | 40.55342 | -3.57479 | 2626 ft | 142 kts | 180° |
| 2026-05-04 12:28 | 40.54336 | -3.57458 | 2443 ft | 152 kts | 184° |
| 2026-05-04 12:28 | 40.53270 | -3.57470 | 2218 ft | 151 kts | 186° |
| 2026-05-04 12:29 | 40.52246 | -3.57460 | 2050 ft | 142 kts | 186° |
| 2026-05-04 12:29 | 40.51313 | -3.57469 | 1997 ft | 121 kts | 183° |
| 2026-05-04 12:29 | 40.50739 | -3.57479 | 2003 ft | 64 kts | 181° |
| 2026-05-04 12:29 | 40.50575 | -3.57467 | 2000 ft | 0 kts | 179° |
| 2026-05-04 12:30 | 40.50454 | -3.57491 | 1999 ft | 33 kts | 191° |
| 2026-05-04 12:30 | 40.50278 | -3.57575 | 1995 ft | 26 kts | 207° |
| 2026-05-04 12:30 | 40.50121 | -3.57677 | 1995 ft | 24 kts | 196° |
| 2026-05-04 12:30 | 40.49958 | -3.57695 | 1995 ft | 23 kts | 179° |
| 2026-05-04 12:31 | 40.49801 | -3.57693 | 1997 ft | 22 kts | 182° |
| 2026-05-04 12:31 | 40.49740 | -3.57803 | 1997 ft | 15 kts | 264° |
| 2026-05-04 12:31 | 40.49737 | -3.57946 | 1998 ft | 20 kts | 269° |
| 2026-05-04 12:31 | 40.49734 | -3.58208 | 2005 ft | 28 kts | 269° |
| 2026-05-04 12:32 | 40.49735 | -3.58342 | 2010 ft | 20 kts | 271° |
| 2026-05-04 12:32 | 40.49735 | -3.58715 | 2034 ft | 23 kts | 270° |
| 2026-05-04 12:32 | 40.49660 | -3.56873 | 1992 ft | 0 kts | 90° |